createdAt,value
2022-09-04T00:03:37.200Z,16.10
2022-09-04T00:07:59.416Z,16.20
2022-09-04T00:12:08.608Z,16.10
2022-09-04T00:16:21.317Z,16.10
2022-09-04T00:20:23.078Z,16.00
2022-09-04T00:24:37.338Z,16.00
2022-09-04T00:28:45.083Z,15.90
2022-09-04T00:33:15.934Z,15.80
2022-09-04T00:37:26.022Z,15.80
2022-09-04T00:41:40.995Z,15.80
2022-09-04T00:46:20.375Z,15.70
2022-09-04T00:55:45.447Z,15.60
2022-09-04T00:59:59.469Z,15.60
2022-09-04T01:04:10.318Z,15.40
2022-09-04T01:08:40.756Z,15.40
2022-09-04T01:12:57.106Z,15.30
2022-09-04T01:17:40.852Z,15.30
2022-09-04T01:22:21.267Z,15.20
2022-09-04T01:26:51.633Z,15.20
2022-09-04T01:31:18.167Z,15.10
2022-09-04T01:35:43.480Z,15.00
2022-09-04T01:39:50.845Z,15.00
2022-09-04T01:43:52.622Z,14.90
2022-09-04T01:48:01.734Z,14.90
2022-09-04T01:52:29.844Z,14.90
2022-09-04T01:56:38.818Z,14.80
2022-09-04T02:00:49.325Z,14.80
2022-09-04T02:05:09.786Z,14.90
2022-09-04T02:09:54.217Z,14.80
2022-09-04T02:14:09.171Z,14.80
2022-09-04T02:18:19.750Z,14.90
2022-09-04T02:22:47.495Z,14.90
2022-09-04T02:27:07.901Z,14.90
2022-09-04T02:31:37.327Z,14.90
2022-09-04T02:36:00.725Z,14.90
2022-09-04T02:40:20.543Z,14.80
2022-09-04T02:44:45.019Z,14.90
2022-09-04T02:49:03.381Z,14.80
2022-09-04T02:53:20.701Z,14.90
2022-09-04T02:57:39.035Z,14.80
2022-09-04T03:01:57.409Z,14.80
2022-09-04T03:06:08.877Z,14.80
2022-09-04T03:10:23.151Z,14.80
2022-09-04T03:14:56.139Z,14.80
2022-09-04T03:19:42.367Z,14.90
2022-09-04T03:23:44.057Z,14.90
2022-09-04T03:27:46.616Z,14.90
2022-09-04T03:32:16.537Z,14.90
2022-09-04T03:36:29.934Z,14.80
2022-09-04T03:40:39.087Z,14.80
2022-09-04T03:44:50.486Z,14.70
2022-09-04T03:49:29.978Z,14.80
2022-09-04T03:53:57.503Z,14.80
2022-09-04T03:58:16.951Z,14.80
2022-09-04T04:02:39.666Z,14.80
2022-09-04T04:06:41.326Z,14.80
2022-09-04T04:11:03.160Z,14.80
2022-09-04T04:15:16.775Z,14.80
2022-09-04T04:19:53.243Z,14.80
2022-09-04T04:24:14.476Z,14.80
2022-09-04T04:28:59.088Z,14.70
2022-09-04T04:33:23.133Z,14.70
2022-09-04T04:37:50.188Z,14.60
2022-09-04T04:42:05.541Z,14.50
2022-09-04T04:46:45.737Z,14.50
2022-09-04T04:51:00.384Z,14.50
2022-09-04T04:55:07.884Z,14.40
2022-09-04T04:59:30.738Z,14.50
2022-09-04T05:03:38.286Z,14.50
2022-09-04T05:07:53.211Z,14.50
2022-09-04T05:12:29.129Z,14.50
2022-09-04T05:16:51.091Z,14.40
2022-09-04T05:21:10.083Z,14.40
2022-09-04T05:25:25.550Z,14.50
2022-09-04T05:30:00.552Z,14.60
2022-09-04T05:34:20.500Z,14.70
2022-09-04T05:38:36.324Z,14.90
2022-09-04T05:43:14.813Z,15.00
2022-09-04T05:48:01.431Z,15.10
2022-09-04T05:52:08.835Z,15.30
2022-09-04T05:56:10.439Z,15.40
2022-09-04T06:00:16.445Z,15.50
2022-09-04T06:04:37.087Z,15.70
2022-09-04T06:08:51.046Z,15.80
2022-09-04T06:13:34.047Z,16.00
2022-09-04T06:18:07.207Z,16.10
2022-09-04T06:22:17.693Z,16.20
2022-09-04T06:26:31.531Z,16.30
2022-09-04T06:30:57.751Z,16.50
2022-09-04T06:35:10.179Z,16.50
2022-09-04T06:39:44.361Z,16.60
2022-09-04T06:43:57.618Z,16.70
2022-09-04T06:47:59.573Z,16.80
2022-09-04T06:52:52.608Z,16.90
2022-09-04T06:57:38.915Z,17.00
2022-09-04T07:01:40.856Z,17.20
2022-09-04T07:05:50.317Z,17.30
2022-09-04T07:10:04.268Z,17.50
2022-09-04T07:14:16.981Z,17.50
2022-09-04T07:18:27.891Z,17.60
2022-09-04T07:22:47.774Z,17.70
2022-09-04T07:27:01.428Z,17.80
2022-09-04T07:31:15.543Z,18.10
2022-09-04T07:35:42.207Z,18.10
2022-09-04T07:39:54.508Z,18.30
2022-09-04T07:44:29.487Z,18.40
2022-09-04T07:48:37.966Z,18.50
2022-09-04T07:53:14.545Z,18.80
2022-09-04T07:57:25.455Z,18.90
2022-09-04T08:02:01.392Z,19.00
2022-09-04T08:06:19.251Z,19.30
2022-09-04T08:10:36.603Z,19.30
2022-09-04T08:14:55.397Z,19.40
2022-09-04T08:19:08.781Z,19.90
2022-09-04T08:23:24.414Z,20.00
2022-09-04T08:27:54.354Z,20.10
2022-09-04T08:32:22.126Z,20.50
2022-09-04T08:36:39.215Z,20.50
2022-09-04T08:41:11.058Z,20.70
2022-09-04T08:45:27.839Z,20.80
2022-09-04T08:49:47.740Z,21.10
2022-09-04T08:54:21.982Z,21.50
2022-09-04T08:58:29.400Z,21.60
2022-09-04T09:02:33.887Z,21.80
2022-09-04T09:06:57.639Z,22.00
2022-09-04T09:11:23.737Z,22.00
2022-09-04T09:15:53.575Z,22.30
2022-09-04T09:20:08.000Z,22.80
2022-09-04T09:24:32.787Z,23.30
2022-09-04T09:28:40.357Z,23.70
2022-09-04T09:33:10.138Z,23.90
2022-09-04T09:37:20.603Z,24.50
2022-09-04T09:41:34.515Z,24.90
2022-09-04T09:45:57.261Z,25.80
2022-09-04T09:50:25.463Z,26.40
2022-09-04T09:54:37.771Z,27.30
2022-09-04T09:59:10.664Z,28.00
2022-09-04T10:03:56.227Z,28.10
2022-09-04T10:08:10.504Z,28.60
2022-09-04T10:12:36.426Z,29.10
2022-09-04T10:17:09.699Z,29.10
2022-09-04T10:21:32.864Z,29.80
2022-09-04T10:26:12.287Z,30.00
2022-09-04T10:30:16.651Z,30.10
2022-09-04T10:34:46.324Z,29.70
2022-09-04T10:39:38.289Z,29.90
2022-09-04T10:44:28.512Z,29.40
2022-09-04T10:48:39.319Z,29.00
2022-09-04T10:53:06.476Z,28.80
2022-09-04T10:57:21.454Z,28.10
2022-09-04T11:02:02.283Z,27.90
2022-09-04T11:06:28.678Z,27.50
2022-09-04T11:10:44.727Z,27.40
2022-09-04T11:15:24.143Z,27.40
2022-09-04T11:19:44.123Z,27.20
2022-09-04T11:24:07.006Z,27.80
2022-09-04T11:28:30.944Z,27.70
2022-09-04T11:33:05.963Z,28.00
2022-09-04T11:37:38.344Z,28.00
2022-09-04T11:42:01.979Z,27.50
2022-09-04T11:46:16.478Z,27.30
2022-09-04T11:51:09.946Z,27.30
2022-09-04T11:55:22.381Z,27.10
2022-09-04T11:59:42.704Z,26.60
2022-09-04T12:03:44.493Z,26.60
2022-09-04T12:08:20.093Z,27.20
2022-09-04T12:12:42.974Z,27.40
2022-09-04T12:17:10.388Z,27.90
2022-09-04T12:21:34.765Z,27.60
2022-09-04T12:25:54.961Z,27.20
2022-09-04T12:30:10.839Z,27.20
2022-09-04T12:34:39.570Z,27.50
2022-09-04T12:38:57.608Z,27.80
2022-09-04T12:43:34.650Z,27.70
2022-09-04T12:47:58.582Z,27.60
2022-09-04T12:52:17.288Z,27.70
2022-09-04T12:56:53.192Z,27.80
2022-09-04T13:01:08.336Z,27.60
2022-09-04T13:05:16.259Z,27.10
2022-09-04T13:09:41.970Z,27.10
2022-09-04T13:14:39.312Z,26.90
2022-09-04T13:19:03.613Z,26.80
2022-09-04T13:23:17.689Z,26.80
2022-09-04T13:27:39.203Z,26.80
2022-09-04T13:31:56.154Z,26.80
2022-09-04T13:36:24.110Z,26.80
2022-09-04T13:40:44.186Z,26.70
2022-09-04T13:44:54.841Z,26.80
2022-09-04T13:49:05.331Z,26.80
2022-09-04T13:53:40.643Z,27.10
2022-09-04T13:57:51.823Z,27.40
2022-09-04T14:01:58.224Z,27.50
2022-09-04T14:06:01.966Z,27.70
2022-09-04T14:10:14.982Z,27.80
2022-09-04T14:14:49.663Z,27.90
2022-09-04T14:18:57.003Z,27.80
2022-09-04T14:23:27.084Z,27.80
2022-09-04T14:27:42.916Z,27.80
2022-09-04T14:32:19.299Z,27.70
2022-09-04T14:36:59.695Z,27.60
2022-09-04T14:41:20.570Z,27.40
2022-09-04T14:45:52.594Z,27.30
2022-09-04T14:50:01.100Z,27.50
2022-09-04T14:54:03.867Z,27.60
2022-09-04T14:58:19.456Z,28.00
2022-09-04T15:02:42.605Z,27.80
2022-09-04T15:07:10.227Z,27.70
2022-09-04T15:11:34.624Z,27.60
2022-09-04T15:15:40.806Z,27.40
2022-09-04T15:19:52.960Z,27.10
2022-09-04T15:24:03.540Z,26.90
2022-09-04T15:28:29.643Z,26.90
2022-09-04T15:32:39.762Z,27.00
2022-09-04T15:36:41.771Z,27.10
2022-09-04T15:41:12.644Z,26.90
2022-09-04T15:45:24.733Z,26.70
2022-09-04T15:49:26.445Z,26.90
2022-09-04T15:53:35.671Z,26.70
2022-09-04T15:57:49.372Z,26.60
2022-09-04T16:02:11.487Z,26.60
2022-09-04T16:06:26.964Z,26.40
2022-09-04T16:10:44.169Z,26.50
2022-09-04T16:14:51.772Z,26.30
2022-09-04T16:19:38.370Z,26.00
2022-09-04T16:23:40.330Z,25.90
2022-09-04T16:27:51.238Z,25.80
2022-09-04T16:31:54.878Z,25.80
2022-09-04T16:36:08.244Z,25.80
2022-09-04T16:40:29.789Z,25.70
2022-09-04T16:44:40.655Z,25.70
2022-09-04T16:48:48.110Z,25.60
2022-09-04T16:53:13.085Z,25.60
2022-09-04T16:57:18.476Z,25.60
2022-09-04T17:01:38.422Z,25.50
2022-09-04T17:05:50.901Z,25.40
2022-09-04T17:10:22.612Z,25.40
2022-09-04T17:14:46.735Z,25.30
2022-09-04T17:18:53.091Z,25.30
2022-09-04T17:28:59.462Z,25.10
2022-09-04T17:29:09.210Z,25.10
2022-09-04T17:35:38.207Z,25.10
2022-09-04T17:40:56.729Z,24.90
2022-09-04T17:42:06.608Z,24.70
2022-09-04T17:46:32.310Z,24.60
2022-09-04T17:50:34.256Z,24.40
2022-09-04T17:54:49.217Z,24.20
2022-09-04T17:59:06.195Z,24.00
2022-09-04T18:03:23.349Z,23.70
2022-09-04T18:08:07.594Z,23.40
2022-09-04T18:12:10.826Z,23.10
2022-09-04T18:16:31.232Z,22.90
2022-09-04T18:20:55.771Z,22.60
2022-09-04T18:25:36.295Z,22.30
2022-09-04T18:30:57.198Z,22.00
2022-09-04T18:37:20.116Z,21.70
2022-09-04T18:39:24.370Z,21.40
2022-09-04T18:50:39.384Z,21.20
2022-09-04T18:50:47.147Z,21.00
2022-09-04T18:52:42.782Z,20.80
2022-09-04T18:56:48.990Z,20.50
2022-09-04T19:01:27.297Z,20.30
2022-09-04T19:05:44.711Z,20.20
2022-09-04T19:09:58.780Z,20.00
2022-09-04T19:14:13.655Z,19.80
2022-09-04T19:18:30.339Z,19.60
2022-09-04T19:22:45.494Z,19.50
2022-09-04T19:26:56.806Z,19.30
2022-09-04T19:31:04.715Z,19.20
2022-09-04T19:35:29.846Z,19.00
2022-09-04T19:45:19.980Z,18.90
2022-09-04T19:46:15.174Z,18.90
2022-09-04T19:49:50.931Z,18.70
2022-09-04T19:53:42.149Z,18.60
2022-09-04T19:57:53.675Z,18.60
2022-09-04T20:02:02.803Z,18.40
2022-09-04T20:06:21.421Z,18.30
2022-09-04T20:10:37.663Z,18.30
2022-09-04T20:15:02.747Z,18.20
2022-09-04T20:19:27.574Z,18.10
2022-09-04T20:23:56.546Z,18.00
2022-09-04T20:28:29.102Z,17.90
2022-09-04T20:32:39.047Z,17.90
2022-09-04T20:36:49.024Z,17.80
2022-09-04T20:41:33.543Z,17.70
2022-09-04T20:52:44.449Z,17.60
2022-09-04T20:52:51.289Z,17.60
2022-09-04T20:54:59.583Z,17.60
2022-09-04T21:03:24.605Z,17.50
2022-09-04T21:04:01.476Z,17.40
2022-09-04T21:08:09.885Z,17.40
2022-09-04T21:12:30.340Z,17.30
2022-09-04T21:16:50.834Z,17.20
2022-09-04T21:21:13.339Z,17.20
2022-09-04T21:25:23.720Z,17.10
2022-09-04T21:29:43.908Z,17.10
2022-09-04T21:34:23.154Z,17.10
2022-09-04T21:38:44.998Z,17.00
2022-09-04T21:43:07.830Z,17.00
2022-09-04T21:47:33.889Z,17.00
2022-09-04T21:52:00.352Z,16.90
2022-09-04T22:02:27.075Z,16.90
2022-09-04T22:02:45.028Z,16.90
2022-09-04T22:05:40.768Z,16.80
2022-09-04T22:13:30.138Z,16.80
2022-09-04T22:14:48.609Z,16.70
2022-09-04T22:19:01.979Z,16.80
2022-09-04T22:23:35.434Z,16.70
2022-09-04T22:28:09.254Z,16.70
2022-09-04T22:32:23.099Z,16.60
2022-09-04T22:36:55.635Z,16.70
2022-09-04T22:41:14.365Z,16.60
2022-09-04T22:45:34.374Z,16.60
2022-09-04T22:50:04.951Z,16.60
2022-09-04T22:54:36.295Z,16.50
2022-09-04T22:58:50.031Z,16.50
2022-09-04T23:03:09.810Z,16.50
2022-09-04T23:13:09.438Z,16.40
2022-09-04T23:13:57.711Z,16.40
2022-09-04T23:16:40.490Z,16.30
2022-09-04T23:26:34.341Z,16.30
2022-09-04T23:26:43.776Z,16.20
2022-09-04T23:30:26.985Z,16.20
2022-09-04T23:35:14.390Z,16.20
2022-09-04T23:39:28.462Z,16.20
2022-09-04T23:43:46.463Z,16.10
2022-09-04T23:48:23.262Z,16.10
2022-09-04T23:52:55.328Z,16.10
2022-09-04T23:57:03.182Z,16.00
